createdAt,value
2023-01-13T00:01:13.971Z,98.44
2023-01-13T00:03:42.259Z,97.86
2023-01-13T00:06:13.482Z,98.13
2023-01-13T00:08:41.022Z,97.17
2023-01-13T00:11:09.747Z,97.23
2023-01-13T00:13:38.427Z,97.45
2023-01-13T00:16:07.973Z,96.95
2023-01-13T00:18:36.971Z,96.70
2023-01-13T00:21:06.077Z,96.98
2023-01-13T00:23:34.460Z,96.83
2023-01-13T00:26:06.987Z,96.65
2023-01-13T00:28:34.318Z,96.90
2023-01-13T00:31:12.534Z,96.93
2023-01-13T00:33:39.958Z,96.90
2023-01-13T00:36:08.412Z,96.87
2023-01-13T00:38:36.213Z,96.67
2023-01-13T00:41:53.483Z,96.47
2023-01-13T00:44:21.041Z,96.37
2023-01-13T00:46:48.308Z,96.64
2023-01-13T00:49:15.415Z,96.66
2023-01-13T00:51:42.777Z,96.61
2023-01-13T00:54:09.875Z,96.73
2023-01-13T00:56:41.248Z,96.85
2023-01-13T00:59:13.430Z,97.79
2023-01-13T01:01:41.596Z,98.60
2023-01-13T01:04:09.109Z,98.82
2023-01-13T01:06:36.206Z,98.91
2023-01-13T01:09:04.243Z,99.10
2023-01-13T01:11:32.525Z,98.66
2023-01-13T01:14:01.719Z,98.59
2023-01-13T01:16:30.310Z,98.99
2023-01-13T01:18:58.184Z,98.89
2023-01-13T01:21:26.483Z,98.67
2023-01-13T01:23:54.058Z,98.88
2023-01-13T01:26:24.403Z,99.60
2023-01-13T01:28:52.146Z,100.00
2023-01-13T01:31:25.366Z,99.75
2023-01-13T01:33:54.011Z,99.59
2023-01-13T01:36:22.199Z,99.40
2023-01-13T01:38:49.909Z,99.48
2023-01-13T01:41:25.059Z,99.06
2023-01-13T01:44:02.248Z,98.52
2023-01-13T01:46:38.109Z,98.69
2023-01-13T01:49:17.510Z,98.61
2023-01-13T01:52:13.641Z,99.19
2023-01-13T01:54:52.582Z,98.95
2023-01-13T01:57:23.967Z,98.41
2023-01-13T01:59:51.209Z,98.39
2023-01-13T02:02:18.768Z,98.19
2023-01-13T02:04:51.993Z,98.44
2023-01-13T02:07:21.436Z,99.09
2023-01-13T02:09:49.295Z,98.98
2023-01-13T02:12:32.352Z,99.40
2023-01-13T02:15:04.346Z,99.25
2023-01-13T02:17:52.811Z,99.39
2023-01-13T02:20:48.177Z,99.56
2023-01-13T02:23:40.032Z,98.91
2023-01-13T02:26:23.168Z,99.88
2023-01-13T02:29:46.729Z,99.17
2023-01-13T02:32:17.134Z,99.18
2023-01-13T02:35:17.887Z,98.96
2023-01-13T02:37:45.949Z,99.64
2023-01-13T02:40:26.919Z,99.71
2023-01-13T02:43:21.937Z,99.48
2023-01-13T02:46:03.251Z,98.95
2023-01-13T02:48:32.110Z,98.20
2023-01-13T02:51:03.643Z,97.80
2023-01-13T02:53:38.212Z,97.79
2023-01-13T02:56:06.621Z,98.22
2023-01-13T02:58:35.167Z,96.70
2023-01-13T03:01:02.400Z,97.85
2023-01-13T03:03:31.115Z,97.98
2023-01-13T03:06:05.602Z,96.97
2023-01-13T03:08:39.762Z,96.66
2023-01-13T03:11:10.847Z,95.63
2023-01-13T03:13:44.537Z,95.45
2023-01-13T03:16:15.027Z,94.77
2023-01-13T03:19:03.723Z,95.33
2023-01-13T03:21:38.904Z,95.86
2023-01-13T03:24:18.423Z,95.94
2023-01-13T03:26:49.824Z,95.96
2023-01-13T03:29:19.929Z,96.20
2023-01-13T03:31:56.735Z,96.29
2023-01-13T03:34:27.620Z,95.77
2023-01-13T03:36:57.709Z,95.75
2023-01-13T03:39:32.399Z,94.95
2023-01-13T03:42:09.078Z,94.34
2023-01-13T03:44:42.132Z,94.41
2023-01-13T03:47:12.553Z,94.76
2023-01-13T03:49:51.980Z,95.10
2023-01-13T03:52:24.402Z,94.87
2023-01-13T03:54:54.906Z,94.43
2023-01-13T03:57:26.910Z,94.12
2023-01-13T03:59:56.710Z,93.72
2023-01-13T04:02:39.361Z,94.39
2023-01-13T04:05:09.337Z,95.27
2023-01-13T04:07:39.374Z,95.64
2023-01-13T04:10:09.530Z,96.17
2023-01-13T04:13:01.030Z,95.28
2023-01-13T04:15:39.920Z,94.73
2023-01-13T04:18:27.792Z,94.69
2023-01-13T04:20:57.660Z,95.27
2023-01-13T04:23:24.989Z,96.55
2023-01-13T04:25:52.367Z,97.25
2023-01-13T04:28:20.525Z,97.00
2023-01-13T04:30:48.017Z,97.30
2023-01-13T04:33:16.245Z,97.39
2023-01-13T04:35:44.405Z,97.12
2023-01-13T04:38:14.078Z,97.08
2023-01-13T04:40:41.974Z,97.05
2023-01-13T04:43:09.391Z,96.77
2023-01-13T04:45:36.479Z,96.82
2023-01-13T04:48:03.674Z,97.03
2023-01-13T04:50:31.401Z,96.36
2023-01-13T04:52:58.568Z,96.43
2023-01-13T04:55:25.678Z,96.62
2023-01-13T04:57:53.340Z,96.51
2023-01-13T05:00:22.585Z,96.78
2023-01-13T05:02:50.955Z,97.11
2023-01-13T05:05:18.593Z,97.35
2023-01-13T05:07:45.737Z,96.96
2023-01-13T05:10:13.182Z,95.22
2023-01-13T05:12:59.325Z,93.56
2023-01-13T05:15:45.129Z,93.88
2023-01-13T05:18:13.041Z,93.24
2023-01-13T05:20:40.188Z,93.06
2023-01-13T05:23:25.913Z,93.28
2023-01-13T05:25:53.398Z,93.58
2023-01-13T05:28:20.623Z,93.48
2023-01-13T05:30:49.504Z,93.00
2023-01-13T05:33:18.840Z,91.92
2023-01-13T05:35:46.771Z,91.51
2023-01-13T05:38:14.586Z,90.05
2023-01-13T05:41:11.434Z,89.44
2023-01-13T05:43:38.519Z,90.29
2023-01-13T05:46:08.816Z,91.55
2023-01-13T05:48:38.727Z,92.25
2023-01-13T05:51:08.260Z,92.88
2023-01-13T05:53:35.841Z,93.61
2023-01-13T05:56:06.584Z,93.73
2023-01-13T05:58:34.490Z,93.85
2023-01-13T06:01:11.235Z,94.17
2023-01-13T06:03:38.645Z,94.30
2023-01-13T06:06:08.587Z,94.58
2023-01-13T06:08:36.520Z,94.64
2023-01-13T06:11:05.582Z,96.31
2023-01-13T06:13:32.684Z,91.32
2023-01-13T06:16:00.165Z,91.30
2023-01-13T06:18:27.775Z,90.07
2023-01-13T06:20:55.425Z,91.57
2023-01-13T06:23:23.082Z,92.66
2023-01-13T06:26:08.600Z,92.17
2023-01-13T06:28:36.203Z,92.15
2023-01-13T06:31:06.411Z,93.28
2023-01-13T06:33:36.921Z,93.60
2023-01-13T06:36:10.455Z,93.15
2023-01-13T06:38:41.054Z,90.28
2023-01-13T06:41:09.141Z,89.46
2023-01-13T06:43:36.501Z,89.45
2023-01-13T06:46:04.016Z,89.77
2023-01-13T06:48:34.980Z,89.07
2023-01-13T06:51:03.907Z,91.17
2023-01-13T06:53:31.651Z,90.38
2023-01-13T06:55:58.873Z,89.98
2023-01-13T06:58:26.108Z,88.25
2023-01-13T07:00:53.965Z,88.91
2023-01-13T07:03:21.487Z,90.12
2023-01-13T07:05:53.659Z,91.58
2023-01-13T07:08:22.477Z,91.80
2023-01-13T07:10:49.768Z,91.65
2023-01-13T07:13:35.438Z,93.57
2023-01-13T07:16:05.118Z,91.63
2023-01-13T07:18:33.356Z,91.28
2023-01-13T07:21:02.817Z,91.68
2023-01-13T07:23:31.966Z,91.80
2023-01-13T07:25:59.737Z,93.11
2023-01-13T07:28:28.377Z,93.67
2023-01-13T07:30:56.390Z,93.08
2023-01-13T07:33:23.866Z,94.15
2023-01-13T07:35:58.915Z,93.75
2023-01-13T07:38:27.363Z,93.93
2023-01-13T07:40:54.577Z,93.76
2023-01-13T07:43:33.709Z,91.64
2023-01-13T07:46:04.557Z,87.55
2023-01-13T07:48:33.770Z,86.34
2023-01-13T07:51:07.815Z,89.16
2023-01-13T07:53:35.588Z,89.46
2023-01-13T07:56:04.859Z,89.29
2023-01-13T07:58:33.913Z,86.17
2023-01-13T08:01:07.703Z,86.17
2023-01-13T08:03:35.170Z,88.61
2023-01-13T08:06:02.361Z,91.77
2023-01-13T08:08:29.422Z,91.45
2023-01-13T08:11:00.937Z,91.40
2023-01-13T08:13:28.068Z,93.01
2023-01-13T08:16:03.849Z,90.49
2023-01-13T08:18:32.378Z,89.40
2023-01-13T08:21:08.064Z,89.95
2023-01-13T08:23:35.945Z,90.14
2023-01-13T08:26:05.797Z,89.71
2023-01-13T08:28:32.962Z,89.86
2023-01-13T08:31:04.862Z,90.55
2023-01-13T08:33:32.481Z,88.97
2023-01-13T08:36:03.725Z,88.42
2023-01-13T08:38:31.461Z,89.09
2023-01-13T08:40:58.735Z,90.01
2023-01-13T08:43:26.104Z,88.51
2023-01-13T08:46:01.344Z,87.72
2023-01-13T08:48:31.448Z,87.15
2023-01-13T08:51:07.581Z,90.30
2023-01-13T08:53:35.112Z,88.48
2023-01-13T08:56:04.176Z,88.18
2023-01-13T08:58:31.344Z,88.32
2023-01-13T09:01:04.977Z,87.70
2023-01-13T09:03:32.713Z,87.80
2023-01-13T09:05:59.866Z,87.17
2023-01-13T09:08:27.039Z,88.41
2023-01-13T09:10:54.574Z,87.12
2023-01-13T09:13:24.535Z,87.29
2023-01-13T09:15:52.632Z,88.94
2023-01-13T09:18:20.029Z,87.75
2023-01-13T09:20:47.232Z,88.30
2023-01-13T09:23:14.359Z,88.39
2023-01-13T09:25:41.830Z,86.87
2023-01-13T09:28:09.021Z,86.11
2023-01-13T09:30:37.741Z,86.72
2023-01-13T09:33:23.713Z,87.19
2023-01-13T09:35:50.904Z,87.60
2023-01-13T09:38:18.406Z,87.21
2023-01-13T09:40:47.915Z,86.88
2023-01-13T09:43:38.460Z,87.70
2023-01-13T09:46:39.589Z,86.15
2023-01-13T09:49:11.087Z,86.53
2023-01-13T09:51:42.259Z,89.32
2023-01-13T09:54:38.102Z,90.95
2023-01-13T09:57:10.437Z,86.45
2023-01-13T09:59:38.222Z,85.91
2023-01-13T10:02:37.324Z,86.09
2023-01-13T10:05:10.562Z,86.14
2023-01-13T10:07:43.856Z,85.37
2023-01-13T10:10:17.136Z,87.76
2023-01-13T10:13:04.764Z,87.41
2023-01-13T10:15:32.220Z,85.75
2023-01-13T10:18:12.568Z,85.30
2023-01-13T10:20:56.024Z,85.57
2023-01-13T10:23:25.926Z,87.33
2023-01-13T10:26:21.036Z,87.71
2023-01-13T10:28:53.205Z,88.18
2023-01-13T10:31:22.319Z,88.53
2023-01-13T10:33:58.550Z,88.02
2023-01-13T10:36:26.009Z,88.64
2023-01-13T10:38:53.201Z,87.38
2023-01-13T10:41:24.127Z,86.70
2023-01-13T10:43:51.476Z,88.24
2023-01-13T10:46:20.475Z,86.07
2023-01-13T10:49:27.614Z,85.05
2023-01-13T10:51:55.011Z,86.96
2023-01-13T10:54:24.456Z,83.48
2023-01-13T10:57:24.419Z,82.88
2023-01-13T10:59:53.095Z,84.80
2023-01-13T11:02:27.202Z,82.32
2023-01-13T11:05:02.696Z,82.99
2023-01-13T11:07:40.538Z,82.76
2023-01-13T11:10:17.235Z,82.44
2023-01-13T11:12:53.853Z,80.21
2023-01-13T11:15:24.728Z,80.69
2023-01-13T11:18:00.544Z,82.89
2023-01-13T11:20:37.010Z,81.48
2023-01-13T11:23:22.796Z,82.76
2023-01-13T11:25:55.302Z,81.76
2023-01-13T11:28:38.248Z,82.04
2023-01-13T11:31:19.481Z,83.66
2023-01-13T11:34:17.758Z,82.21
2023-01-13T11:36:49.410Z,79.07
2023-01-13T11:39:26.524Z,80.66
2023-01-13T11:42:16.954Z,82.29
2023-01-13T11:45:05.574Z,81.35
2023-01-13T11:47:35.864Z,81.09
2023-01-13T11:50:03.250Z,79.12
2023-01-13T11:52:49.218Z,79.40
2023-01-13T11:55:54.671Z,85.25
2023-01-13T11:58:51.051Z,80.35
2023-01-13T12:01:32.021Z,79.77
2023-01-13T12:04:05.821Z,79.91
2023-01-13T12:06:34.884Z,79.26
2023-01-13T12:09:22.281Z,78.21
2023-01-13T12:12:22.201Z,79.92
2023-01-13T12:15:11.502Z,80.34
2023-01-13T12:17:48.927Z,78.96
2023-01-13T12:20:38.117Z,77.73
2023-01-13T12:23:13.726Z,79.21
2023-01-13T12:25:45.572Z,80.49
2023-01-13T12:28:44.419Z,79.69
2023-01-13T12:31:13.696Z,79.92
2023-01-13T12:33:45.414Z,80.13
2023-01-13T12:36:22.500Z,80.25
2023-01-13T12:38:53.201Z,78.55
2023-01-13T12:41:31.097Z,78.38
2023-01-13T12:44:17.140Z,79.50
2023-01-13T12:46:45.968Z,78.14
2023-01-13T12:49:24.598Z,81.77
2023-01-13T12:51:51.900Z,79.07
2023-01-13T12:54:33.964Z,79.27
2023-01-13T12:57:01.674Z,80.19
2023-01-13T12:59:28.783Z,78.16
2023-01-13T13:02:11.243Z,78.48
2023-01-13T13:04:48.465Z,77.86
2023-01-13T13:07:19.169Z,78.87
2023-01-13T13:09:52.396Z,80.76
2023-01-13T13:13:01.392Z,80.66
2023-01-13T13:15:34.132Z,82.10
2023-01-13T13:18:20.836Z,87.01
2023-01-13T13:20:54.573Z,84.10
2023-01-13T13:23:47.953Z,83.23
2023-01-13T13:26:26.335Z,83.42
2023-01-13T13:28:56.485Z,82.81
2023-01-13T13:31:41.026Z,82.96
2023-01-13T13:34:10.699Z,83.24
2023-01-13T13:37:00.623Z,85.94
2023-01-13T13:39:49.117Z,86.53
2023-01-13T13:42:39.417Z,84.84
2023-01-13T13:45:39.977Z,84.20
2023-01-13T13:48:27.211Z,84.07
2023-01-13T13:50:59.915Z,81.47
2023-01-13T13:53:30.399Z,80.82
2023-01-13T13:55:59.926Z,79.65
2023-01-13T13:58:35.454Z,79.86
2023-01-13T14:01:04.112Z,80.42
2023-01-13T14:03:34.596Z,81.16
2023-01-13T14:06:04.208Z,81.41
2023-01-13T14:08:36.986Z,81.95
2023-01-13T14:11:28.429Z,85.93
2023-01-13T14:14:07.233Z,85.60
2023-01-13T14:16:36.259Z,85.59
2023-01-13T14:19:03.919Z,86.21
2023-01-13T14:21:31.261Z,85.20
2023-01-13T14:24:01.303Z,84.31
2023-01-13T14:26:31.284Z,83.38
2023-01-13T14:29:00.633Z,84.03
2023-01-13T14:31:28.243Z,83.94
2023-01-13T14:33:57.616Z,87.32
2023-01-13T14:36:25.387Z,85.74
2023-01-13T14:39:04.624Z,84.78
2023-01-13T14:41:37.455Z,86.35
2023-01-13T14:44:32.484Z,84.57
2023-01-13T14:47:05.208Z,83.52
2023-01-13T14:49:36.831Z,85.37
2023-01-13T14:52:16.924Z,83.07
2023-01-13T14:54:45.218Z,82.64
2023-01-13T14:57:14.267Z,84.17
2023-01-13T14:59:57.347Z,83.14
2023-01-13T15:02:30.651Z,83.76
2023-01-13T15:05:24.304Z,83.18
2023-01-13T15:07:54.615Z,85.64
2023-01-13T15:10:25.391Z,85.24
2023-01-13T15:12:54.655Z,85.14
2023-01-13T15:15:33.414Z,83.66
2023-01-13T15:18:02.129Z,83.62
2023-01-13T15:20:29.422Z,83.91
2023-01-13T15:22:58.679Z,84.62
2023-01-13T15:25:31.936Z,84.93
2023-01-13T15:27:59.074Z,82.70
2023-01-13T15:30:27.829Z,81.04
2023-01-13T15:32:57.141Z,82.14
2023-01-13T15:35:26.042Z,80.06
2023-01-13T15:37:55.837Z,82.75
2023-01-13T15:40:30.684Z,83.98
2023-01-13T15:43:17.234Z,83.00
2023-01-13T15:46:04.554Z,82.23
2023-01-13T15:48:32.954Z,83.62
2023-01-13T15:51:03.711Z,83.22
2023-01-13T15:53:32.660Z,84.68
2023-01-13T15:56:00.389Z,86.05
2023-01-13T15:58:30.178Z,86.41
2023-01-13T16:00:57.785Z,86.76
2023-01-13T16:03:25.193Z,87.56
2023-01-13T16:05:52.296Z,89.01
2023-01-13T16:08:21.917Z,88.98
2023-01-13T16:10:49.886Z,88.95
2023-01-13T16:13:17.822Z,88.29
2023-01-13T16:15:47.968Z,88.19
2023-01-13T16:18:21.314Z,88.68
2023-01-13T16:20:52.812Z,89.54
2023-01-13T16:23:20.586Z,89.37
2023-01-13T16:25:47.858Z,89.21
2023-01-13T16:28:24.061Z,89.57
2023-01-13T16:30:52.108Z,88.20
2023-01-13T16:33:19.301Z,88.85
2023-01-13T16:36:10.325Z,89.53
2023-01-13T16:38:33.845Z,89.32
2023-01-13T16:41:01.085Z,88.86
2023-01-13T16:43:28.265Z,89.27
2023-01-13T16:45:55.770Z,89.42
2023-01-13T16:48:22.998Z,90.17
2023-01-13T16:50:50.183Z,91.04
2023-01-13T16:53:17.591Z,91.14
2023-01-13T16:55:44.952Z,91.75
2023-01-13T16:58:17.838Z,92.84
2023-01-13T17:00:46.968Z,92.59
2023-01-13T17:03:17.584Z,93.86
2023-01-13T17:05:49.454Z,94.68
2023-01-13T17:08:19.921Z,94.93
2023-01-13T17:10:47.577Z,95.41
2023-01-13T17:13:17.079Z,95.70
2023-01-13T17:15:45.646Z,95.21
2023-01-13T17:18:13.615Z,95.24
2023-01-13T17:20:41.384Z,95.38
2023-01-13T17:23:08.566Z,95.52
2023-01-13T17:25:36.031Z,95.30
2023-01-13T17:28:03.444Z,95.83
2023-01-13T17:30:30.519Z,95.71
2023-01-13T17:32:57.925Z,95.51
2023-01-13T17:35:25.440Z,95.28
2023-01-13T17:37:53.241Z,95.88
2023-01-13T17:40:20.930Z,97.54
2023-01-13T17:42:48.079Z,97.75
2023-01-13T17:45:16.307Z,97.54
2023-01-13T17:47:43.727Z,97.42
2023-01-13T17:50:10.917Z,96.98
2023-01-13T17:52:38.121Z,97.09
2023-01-13T17:55:05.891Z,96.65
2023-01-13T17:57:35.082Z,96.21
2023-01-13T18:00:03.286Z,96.59
2023-01-13T18:02:39.296Z,96.94
2023-01-13T18:05:06.925Z,96.26
2023-01-13T18:07:34.016Z,96.16
2023-01-13T18:10:01.161Z,96.34
2023-01-13T18:12:28.615Z,97.06
2023-01-13T18:14:55.722Z,96.97
2023-01-13T18:17:22.920Z,97.48
2023-01-13T18:20:08.991Z,97.17
2023-01-13T18:22:54.600Z,97.07
2023-01-13T18:25:40.459Z,96.95
2023-01-13T18:28:07.583Z,97.18
2023-01-13T18:30:35.058Z,96.56
2023-01-13T18:33:02.296Z,97.00
2023-01-13T18:35:30.122Z,97.72
2023-01-13T18:37:57.461Z,98.25
2023-01-13T18:40:24.611Z,96.91
2023-01-13T18:42:51.817Z,97.26
2023-01-13T18:45:29.904Z,97.22
2023-01-13T18:47:59.507Z,97.11
2023-01-13T18:50:28.151Z,97.43
2023-01-13T18:52:55.546Z,97.89
2023-01-13T18:55:23.059Z,99.26
2023-01-13T18:57:51.223Z,98.08
2023-01-13T19:00:20.384Z,97.54
2023-01-13T19:02:48.076Z,97.24
2023-01-13T19:05:15.483Z,97.84
2023-01-13T19:07:46.340Z,98.02
2023-01-13T19:10:13.462Z,98.36
2023-01-13T19:12:42.204Z,98.53
2023-01-13T19:15:09.964Z,98.89
2023-01-13T19:17:37.084Z,98.34
2023-01-13T19:20:05.204Z,97.75
2023-01-13T19:22:34.028Z,97.14
2023-01-13T19:25:01.889Z,97.69
2023-01-13T19:27:29.905Z,98.35
2023-01-13T19:30:04.008Z,97.79
2023-01-13T19:32:33.296Z,98.42
2023-01-13T19:35:01.022Z,98.79
2023-01-13T19:37:33.728Z,99.17
2023-01-13T19:40:01.300Z,99.17
2023-01-13T19:42:47.699Z,99.21
2023-01-13T19:45:28.258Z,99.16
2023-01-13T19:47:57.045Z,99.13
2023-01-13T19:50:25.076Z,99.42
2023-01-13T19:52:52.305Z,99.57
2023-01-13T19:55:19.847Z,99.94
2023-01-13T19:57:48.410Z,100.00
2023-01-13T20:00:18.334Z,99.62
2023-01-13T20:02:49.540Z,99.43
2023-01-13T20:05:21.044Z,98.96
2023-01-13T20:07:49.931Z,98.39
2023-01-13T20:10:18.897Z,97.99
2023-01-13T20:12:46.071Z,98.10
2023-01-13T20:15:13.665Z,97.94
2023-01-13T20:17:41.581Z,97.91
2023-01-13T20:20:10.620Z,98.25
2023-01-13T20:22:39.265Z,97.77
2023-01-13T20:25:07.070Z,97.22
2023-01-13T20:27:34.458Z,97.08
2023-01-13T20:30:01.895Z,97.19
2023-01-13T20:32:29.006Z,96.97
2023-01-13T20:34:56.136Z,97.25
2023-01-13T20:37:23.499Z,97.20
2023-01-13T20:39:50.720Z,97.02
2023-01-13T20:42:29.842Z,97.12
2023-01-13T20:45:01.236Z,96.77
2023-01-13T20:47:29.537Z,97.16
2023-01-13T20:49:56.857Z,96.76
2023-01-13T20:52:24.735Z,96.97
2023-01-13T20:54:51.954Z,97.80
2023-01-13T20:57:19.114Z,98.27
2023-01-13T20:59:46.641Z,97.43
2023-01-13T21:02:15.682Z,98.11
2023-01-13T21:04:43.433Z,98.31
2023-01-13T21:07:10.998Z,98.53
2023-01-13T21:09:38.172Z,98.83
2023-01-13T21:12:24.834Z,99.55
2023-01-13T21:15:11.149Z,99.81
2023-01-13T21:17:56.724Z,98.92
2023-01-13T21:20:24.082Z,99.52
2023-01-13T21:22:51.277Z,99.62
2023-01-13T21:25:18.999Z,99.93
2023-01-13T21:27:46.592Z,99.53
2023-01-13T21:30:15.445Z,99.49
2023-01-13T21:32:44.124Z,99.32
2023-01-13T21:35:13.283Z,98.77
2023-01-13T21:37:41.927Z,99.25
2023-01-13T21:40:11.015Z,99.56
2023-01-13T21:42:56.847Z,99.58
2023-01-13T21:45:59.430Z,99.15
2023-01-13T21:48:26.837Z,98.51
2023-01-13T21:50:53.904Z,99.71
2023-01-13T21:53:20.972Z,100.00
2023-01-13T21:55:51.264Z,100.00
2023-01-13T21:58:18.307Z,100.00
2023-01-13T22:00:45.494Z,100.00
2023-01-13T22:03:14.662Z,100.00
2023-01-13T22:05:41.940Z,100.00
2023-01-13T22:08:12.455Z,100.00
2023-01-13T22:10:57.158Z,100.00
2023-01-13T22:13:43.845Z,100.00
2023-01-13T22:16:14.469Z,100.00
2023-01-13T22:18:41.617Z,100.00
2023-01-13T22:21:08.698Z,100.00
2023-01-13T22:23:36.077Z,100.00
2023-01-13T22:26:04.361Z,100.00
2023-01-13T22:28:40.104Z,100.00
2023-01-13T22:31:15.102Z,100.00
2023-01-13T22:33:42.767Z,100.00
2023-01-13T22:36:10.333Z,100.00
2023-01-13T22:38:37.442Z,100.00
2023-01-13T22:41:06.747Z,100.00
2023-01-13T22:43:35.327Z,100.00
2023-01-13T22:46:06.276Z,100.00
2023-01-13T22:48:33.919Z,100.00
2023-01-13T22:51:08.913Z,100.00
2023-01-13T22:53:37.179Z,100.00
2023-01-13T22:56:04.931Z,100.00
2023-01-13T22:58:32.343Z,100.00
2023-01-13T23:01:30.456Z,100.00
2023-01-13T23:03:57.904Z,100.00
2023-01-13T23:06:27.048Z,100.00
2023-01-13T23:08:54.740Z,100.00
2023-01-13T23:11:24.669Z,100.00
2023-01-13T23:13:57.898Z,100.00
2023-01-13T23:16:25.159Z,100.00
2023-01-13T23:18:52.580Z,100.00
2023-01-13T23:21:25.973Z,100.00
2023-01-13T23:23:53.785Z,100.00
2023-01-13T23:26:21.419Z,100.00
2023-01-13T23:28:49.033Z,100.00
2023-01-13T23:31:19.482Z,100.00
2023-01-13T23:33:47.066Z,100.00
2023-01-13T23:36:23.364Z,100.00
2023-01-13T23:38:53.738Z,100.00
2023-01-13T23:41:23.639Z,100.00
2023-01-13T23:43:56.084Z,100.00
2023-01-13T23:46:23.467Z,100.00
2023-01-13T23:48:51.506Z,100.00
2023-01-13T23:51:21.232Z,100.00
2023-01-13T23:53:50.076Z,100.00
2023-01-13T23:56:22.889Z,99.81
2023-01-13T23:58:50.417Z,100.00
